Tropical Cyclones
[Index]
Main Index Home Page Stock Weather Photos Extreme Storms Discussion Storm News and Storm Chasing Reports Tropical Cyclones / Hurricanes / Typhoons Weather Data and Links Wild Fires / Bushfires Weather Observation Techniques Weather Picture Catalogue Tornado Pictures and Reports Stock Video Footage and DVDs for sale
Season 1983-1984 Tropical Cyclone GRACE Track Map
Season 1983-1984 Summaries: [BoM-AU] [JTWC-AU] [JTWC-SIO] [JTWC-SPAC] [JTWC-SH]
<<- Previous TC | BoM 1983-1984 Season | Next TC ->>

click for intensity scale information  Lat/long Grid: Show Hide

 Date Labels: Show Hide

Bureau of Meteorology Tropical Cyclone Data

Name: GRACE
Number: 650 / 198384_09

11 Jan 1984 00:00 UTC to 20 Jan 1984 12:00 UTC

    date/time    lat    long    hPa   cat  kts
1984-01-11 00   18.5   148.5   1007                     
1984-01-11 03   18.0   148.7   1007                     
1984-01-11 06   17.6   149.0   1004                     
1984-01-11 09   17.3   149.2   1005                     
1984-01-11 12   17.0   149.4   1006                     
1984-01-11 18   16.6   149.6   1003                     
1984-01-12 00   16.2   149.8   1003                     
1984-01-12 06   15.7   150.0   1003                     
1984-01-12 12   15.4   150.2   1000                     
1984-01-12 18   15.0   150.6    997                     
1984-01-13 00   14.4   150.8    999                     
1984-01-13 06   14.4   150.8    999                     
1984-01-13 12   14.4   150.8    999                     
1984-01-13 18   14.7   150.8    998                     
1984-01-14 00   15.5   150.9    998                     
1984-01-14 03   15.9   150.9    997                     
1984-01-14 06   16.4   150.9    995    1                
1984-01-14 12   17.0   150.9    997                     
1984-01-14 18   17.8   150.9    995    1                
1984-01-15 00   18.4   151.0    991    1                
1984-01-15 06   18.8   151.4    986    1                
1984-01-15 12   19.1   151.9    975    2                
1984-01-15 18   19.7   152.4    975    2                
1984-01-16 00   20.3   152.9    975    2                
1984-01-16 06   20.9   153.9    970    3                
1984-01-16 12   21.5   154.6    970    3                
1984-01-16 18   22.2   155.1    970    3                
1984-01-17 00   22.9   155.4    976    2                
1984-01-17 06   23.1   155.8    980    2                
1984-01-17 12   23.1   156.5    980    2                
1984-01-17 18   23.2   157.5    982    2                
1984-01-18 00   23.3   158.4    982    2                
1984-01-18 06   23.5   159.4    985    2                
1984-01-18 12   23.6   160.3    985    2                
1984-01-18 18   23.6   160.9    988    1                
1984-01-19 00   23.7   161.4    990    1                
1984-01-19 06   23.7   161.8    992    1                
1984-01-19 12   23.6   162.0    995    1                
1984-01-19 18   23.5   162.2    996                     
1984-01-20 00   23.5   162.4   1000                     
1984-01-20 06   23.5   162.6   1000                     
1984-01-20 12   23.4   163.0   1001                     
Winds are 10-min average.

Tropical cyclone tracks developed by Michael Bath using data from the Bureau of Meteorology and Google Maps.


[Australian Severe Weather index] [Copyright Notice] [Email Contacts] [Search This Site] [Privacy Policy]
Document: tropical_cyclone_grace.htm Updated: 30 May 2013